Time;durP1;ratioP1;P1;durP2;ratioP2;P2;SDS_P1;SDS_P2;PMS_P1;PMS_P2;Temp;Humidity;BMP_temperature;BMP_pressure;BME280_temperature;BME280_humidity;BME280_pressure;Samples;Min_cycle;Max_cycle;Signal;HPM_P1;HPM_P2
2023/12/26 00:01:06;;;;;;;1.60;0.60;;;11.20;99.90;;;;;;5073066;28;20211;-45
2023/12/26 00:03:32;;;;;;;0.30;0.30;;;11.20;99.90;;;;;;5073093;28;20184;-43
2023/12/26 00:05:57;;;;;;;0.30;0.30;;;11.10;99.90;;;;;;5055562;28;20221;-44
2023/12/26 00:08:27;;;;;;;0.73;0.40;;;11.10;99.90;;;;;;5073212;28;20254;-43
2023/12/26 00:10:52;;;;;;;0.30;0.30;;;11.10;99.90;;;;;;5055147;28;20585;-43
2023/12/26 00:13:18;;;;;;;1.33;0.47;;;11.10;99.90;;;;;;5073042;28;20179;-43
2023/12/26 00:15:44;;;;;;;0.50;0.47;;;11.00;99.90;;;;;;5073204;28;20188;-43
2023/12/26 00:18:10;;;;;;;0.80;0.40;;;11.00;99.90;;;;;;5073035;28;20180;-42
2023/12/26 00:20:43;;;;;;;0.43;0.43;;;11.00;99.90;;;;;;5073087;28;20207;-45
2023/12/26 00:23:11;;;;;;;0.73;0.40;;;11.00;99.90;;;;;;5072513;28;20196;-44
2023/12/26 00:25:37;;;;;;;2.30;0.70;;;11.00;99.90;;;;;;5055026;28;20188;-42
2023/12/26 00:28:03;;;;;;;0.60;0.47;;;11.00;99.90;;;;;;5073030;28;20202;-43
2023/12/26 00:30:29;;;;;;;0.60;0.60;;;11.00;99.90;;;;;;5072740;28;20581;-43
2023/12/26 00:32:56;;;;;;;1.27;0.70;;;11.00;99.90;;;;;;5073378;28;20167;-43
2023/12/26 00:35:22;;;;;;;0.70;0.50;;;10.90;99.90;;;;;;5073088;28;20172;-45
2023/12/26 00:37:47;;;;;;;2.93;0.70;;;10.90;99.90;;;;;;5072779;28;20213;-43
2023/12/26 00:40:13;;;;;;;0.93;0.47;;;10.90;99.90;;;;;;5072850;28;20231;-43
2023/12/26 00:42:39;;;;;;;0.50;0.50;;;10.90;99.90;;;;;;5077018;28;20226;-43
2023/12/26 00:45:08;;;;;;;0.30;0.30;;;10.90;99.90;;;;;;5076221;28;20551;-42
2023/12/26 00:47:34;;;;;;;0.40;0.40;;;10.80;99.90;;;;;;5076238;28;20183;-44
2023/12/26 00:49:59;;;;;;;0.30;0.30;;;10.80;99.90;;;;;;5058472;28;20303;-44
2023/12/26 00:52:25;;;;;;;2.00;0.63;;;10.80;99.90;;;;;;5076275;28;20207;-45
2023/12/26 00:54:52;;;;;;;1.80;0.60;;;10.80;99.90;;;;;;5070150;28;20215;-43
2023/12/26 00:57:18;;;;;;;0.97;0.50;;;10.80;99.90;;;;;;5076118;28;20211;-42
2023/12/26 00:59:46;;;;;;;1.50;0.60;;;10.80;99.90;;;;;;5075883;28;20234;-42
2023/12/26 01:02:12;;;;;;;0.47;0.47;;;10.70;99.90;;;;;;5076641;28;20584;-44
2023/12/26 01:04:41;;;;;;;4.23;0.90;;;10.70;99.90;;;;;;5058627;28;20187;-45
2023/12/26 01:07:06;;;;;;;0.40;0.40;;;10.70;99.90;;;;;;5075920;28;20648;-44
2023/12/26 01:09:33;;;;;;;0.50;0.40;;;10.70;99.90;;;;;;5075676;28;20199;-43
2023/12/26 01:11:59;;;;;;;3.23;1.10;;;10.70;99.90;;;;;;5075919;28;20203;-43
2023/12/26 01:14:24;;;;;;;0.83;0.50;;;10.70;99.90;;;;;;5075832;28;20256;-44
2023/12/26 01:16:50;;;;;;;0.73;0.60;;;10.70;99.90;;;;;;5076187;28;20187;-43
2023/12/26 01:19:16;;;;;;;2.27;0.70;;;10.70;99.90;;;;;;5075529;28;20250;-45
2023/12/26 01:21:42;;;;;;;0.97;0.50;;;10.70;99.90;;;;;;5075793;28;20183;-43
2023/12/26 01:24:07;;;;;;;1.47;0.70;;;10.70;99.90;;;;;;5075474;28;20564;-42
2023/12/26 01:26:33;;;;;;;1.97;0.57;;;10.70;99.90;;;;;;5075723;28;20176;-43
2023/12/26 01:29:04;;;;;;;0.60;0.43;;;10.60;99.90;;;;;;5075335;28;20202;-43
2023/12/26 01:31:39;;;;;;;0.70;0.50;;;10.60;99.90;;;;;;5075694;28;20204;-44
2023/12/26 01:34:13;;;;;;;1.20;0.50;;;10.60;99.90;;;;;;5073979;28;20686;-44
2023/12/26 01:36:39;;;;;;;0.93;0.60;;;10.60;99.90;;;;;;5075723;28;20176;-43
2023/12/26 01:39:05;;;;;;;0.90;0.60;;;10.50;99.90;;;;;;5075388;28;20183;-43
2023/12/26 01:41:30;;;;;;;1.17;0.60;;;10.50;99.90;;;;;;5075436;28;20175;-44
2023/12/26 01:43:56;;;;;;;1.23;0.60;;;10.40;99.90;;;;;;5075082;28;20678;-43
2023/12/26 01:46:27;;;;;;;0.70;0.50;;;10.50;99.90;;;;;;5075567;28;20179;-43
2023/12/26 01:48:55;;;;;;;1.03;0.67;;;10.40;99.90;;;;;;5074347;28;20236;-44
2023/12/26 01:51:58;;;;;;;1.13;0.43;;;10.40;99.90;;;;;;5057492;28;20623;-44
2023/12/26 01:54:37;;;;;;;0.70;0.60;;;10.30;99.90;;;;;;5074189;28;20674;-43
2023/12/26 01:57:07;;;;;;;1.40;0.40;;;10.30;99.90;;;;;;5073688;28;20193;-43
2023/12/26 01:59:39;;;;;;;0.87;0.57;;;10.20;99.90;;;;;;5054160;28;20208;-44
2023/12/26 02:02:05;;;;;;;1.73;0.80;;;10.20;99.90;;;;;;5074998;28;20179;-43
2023/12/26 02:04:32;;;;;;;2.63;0.50;;;10.20;99.90;;;;;;5074964;28;20268;-43
2023/12/26 02:07:00;;;;;;;0.70;0.50;;;10.20;99.90;;;;;;5056814;28;20588;-45
2023/12/26 02:09:29;;;;;;;4.47;0.60;;;10.10;99.90;;;;;;5074803;28;20207;-45
2023/12/26 02:11:56;;;;;;;0.70;0.40;;;10.10;99.90;;;;;;5056964;28;20288;-44
2023/12/26 02:14:28;;;;;;;0.60;0.60;;;10.00;99.90;;;;;;5074263;28;20176;-45
2023/12/26 02:16:56;;;;;;;0.47;0.47;;;10.00;99.90;;;;;;5074089;28;20530;-44
2023/12/26 02:19:25;;;;;;;0.83;0.50;;;10.00;99.90;;;;;;5056152;28;20194;-42
2023/12/26 02:21:50;;;;;;;0.90;0.47;;;10.00;99.90;;;;;;5056904;28;20270;-43
2023/12/26 02:24:19;;;;;;;2.97;0.70;;;10.00;99.90;;;;;;5074327;28;20271;-44
2023/12/26 02:26:45;;;;;;;0.70;0.53;;;10.00;99.90;;;;;;5056378;28;20682;-42
2023/12/26 02:29:19;;;;;;;1.13;0.70;;;10.00;99.90;;;;;;5074081;28;20191;-43
2023/12/26 02:31:46;;;;;;;1.37;0.50;;;10.00;99.90;;;;;;5073982;28;20268;-43
2023/12/26 02:34:15;;;;;;;1.00;0.50;;;10.00;99.90;;;;;;5063098;28;20187;-44
2023/12/26 02:36:45;;;;;;;0.80;0.80;;;10.00;99.90;;;;;;5074009;28;20263;-42
2023/12/26 02:39:11;;;;;;;2.43;0.53;;;10.00;99.90;;;;;;5074273;28;20258;-44
2023/12/26 02:41:40;;;;;;;2.10;0.50;;;9.90;99.90;;;;;;5074205;28;20659;-44
2023/12/26 02:44:06;;;;;;;1.50;0.73;;;10.00;99.90;;;;;;5073865;28;20172;-43
2023/12/26 02:46:36;;;;;;;1.80;0.77;;;10.00;99.90;;;;;;5073909;28;20233;-42
2023/12/26 02:49:01;;;;;;;2.03;0.70;;;10.00;99.90;;;;;;5056326;28;20194;-42
2023/12/26 02:54:52;;;;;;;1.13;0.60;;;9.90;99.90;;;;;;5073829;28;20173;-42
2023/12/26 02:57:19;;;;;;;3.30;1.17;;;10.00;99.90;;;;;;5056242;28;20187;-44
2023/12/26 02:59:45;;;;;;;2.20;0.80;;;10.00;99.90;;;;;;5055696;28;20211;-43
2023/12/26 03:02:19;;;;;;;1.87;0.90;;;9.90;99.90;;;;;;5078164;28;20187;-43
2023/12/26 03:04:44;;;;;;;1.30;0.70;;;9.90;99.90;;;;;;5083725;28;20186;-43
2023/12/26 03:07:10;;;;;;;1.23;0.60;;;10.00;99.90;;;;;;5066945;28;20184;-44
2023/12/26 03:09:39;;;;;;;0.57;0.40;;;9.90;99.90;;;;;;5079959;28;20196;-42
2023/12/26 03:12:05;;;;;;;4.83;0.60;;;10.00;99.90;;;;;;5075091;28;20212;-44
2023/12/26 03:14:33;;;;;;;2.50;0.90;;;9.90;99.90;;;;;;5074273;28;20175;-45
2023/12/26 03:16:59;;;;;;;1.40;0.73;;;9.90;99.90;;;;;;5074170;28;20172;-43
2023/12/26 03:19:25;;;;;;;0.53;0.47;;;9.90;99.90;;;;;;5056192;28;20209;-42
2023/12/26 03:21:53;;;;;;;2.23;0.90;;;9.90;99.90;;;;;;5074122;28;20191;-43
2023/12/26 03:24:24;;;;;;;1.30;0.63;;;10.00;99.90;;;;;;5073897;28;20183;-41
2023/12/26 03:27:33;;;;;;;2.60;0.83;;;9.90;99.90;;;;;;5074382;28;20210;-44
2023/12/26 03:30:01;;;;;;;0.80;0.60;;;9.90;99.90;;;;;;5073931;28;20279;-42
2023/12/26 03:32:27;;;;;;;2.13;0.80;;;9.90;99.90;;;;;;5073796;28;20191;-42
2023/12/26 03:34:53;;;;;;;2.77;0.60;;;10.00;99.90;;;;;;5073897;28;20199;-43
2023/12/26 03:37:18;;;;;;;4.43;1.17;;;10.00;99.90;;;;;;5075081;28;20222;-44
2023/12/26 03:39:44;;;;;;;3.97;1.10;;;9.90;99.90;;;;;;5056438;28;20202;-46
2023/12/26 03:42:09;;;;;;;0.47;0.40;;;9.90;99.90;;;;;;5055797;28;20191;-43
2023/12/26 03:44:35;;;;;;;2.30;0.70;;;10.00;99.90;;;;;;5073774;28;20266;-44
2023/12/26 03:47:04;;;;;;;3.50;0.93;;;9.90;99.90;;;;;;5073641;28;20222;-44
2023/12/26 03:49:32;;;;;;;2.67;0.70;;;9.90;99.90;;;;;;5073181;28;20562;-42
2023/12/26 03:51:57;;;;;;;3.73;0.63;;;9.90;99.90;;;;;;5073452;28;20207;-44
2023/12/26 03:54:23;;;;;;;2.70;0.70;;;9.90;99.90;;;;;;5055681;28;20176;-43
2023/12/26 03:56:49;;;;;;;1.60;0.60;;;9.90;99.90;;;;;;5055410;28;20187;-44
2023/12/26 03:59:16;;;;;;;1.77;0.80;;;9.90;99.90;;;;;;5073237;28;20568;-44
2023/12/26 04:01:42;;;;;;;1.30;0.90;;;9.90;99.90;;;;;;5073492;28;20194;-43
2023/12/26 04:07:29;;;;;;;2.97;0.90;;;9.80;99.90;;;;;;5073191;28;20640;-42
2023/12/26 04:10:01;;;;;;;1.53;0.50;;;9.80;99.90;;;;;;5073059;28;20204;-43
2023/12/26 04:12:27;;;;;;;2.10;0.90;;;9.80;99.90;;;;;;5073103;28;20207;-43
2023/12/26 04:18:20;;;;;;;3.23;1.20;;;9.80;99.90;;;;;;5076956;28;20190;-42
2023/12/26 04:20:45;;;;;;;2.70;0.83;;;9.80;99.90;;;;;;5076623;28;20721;-44
2023/12/26 04:26:39;;;;;;;6.43;1.43;;;9.80;99.90;;;;;;5076804;28;20165;-43
2023/12/26 04:29:04;;;;;;;3.27;0.83;;;9.80;99.90;;;;;;5059015;28;20263;-43
2023/12/26 04:31:30;;;;;;;3.20;1.07;;;9.80;99.90;;;;;;5076322;28;20345;-42
2023/12/26 04:33:56;;;;;;;1.63;1.00;;;9.80;99.90;;;;;;5077221;28;20171;-42
2023/12/26 04:36:21;;;;;;;0.97;0.83;;;9.80;99.90;;;;;;5076357;28;20182;-44
2023/12/26 04:38:47;;;;;;;2.10;0.77;;;9.90;99.90;;;;;;5076542;28;20191;-43
2023/12/26 04:41:16;;;;;;;3.07;0.73;;;9.90;99.90;;;;;;5076808;28;20259;-42
2023/12/26 04:43:41;;;;;;;4.93;0.90;;;9.90;99.90;;;;;;5076433;28;20537;-43
2023/12/26 04:46:07;;;;;;;2.13;1.00;;;9.90;99.90;;;;;;5058444;28;20182;-42
2023/12/26 04:48:54;;;;;;;1.77;0.97;;;9.90;99.90;;;;;;5076068;28;20540;-43
2023/12/26 04:51:25;;;;;;;2.33;1.20;;;9.90;99.90;;;;;;5075910;28;20210;-42
2023/12/26 04:53:54;;;;;;;3.50;0.83;;;9.90;99.90;;;;;;5070551;28;20557;-43
2023/12/26 04:56:20;;;;;;;3.00;1.33;;;9.90;99.90;;;;;;5058224;28;20262;-43
2023/12/26 04:58:51;;;;;;;2.73;0.90;;;9.90;99.90;;;;;;5075756;28;20199;-43
2023/12/26 05:01:18;;;;;;;3.97;1.20;;;9.80;99.90;;;;;;5075557;28;20202;-45
2023/12/26 05:03:48;;;;;;;2.17;1.20;;;9.80;99.90;;;;;;5075911;28;20184;-43
2023/12/26 05:06:19;;;;;;;5.43;1.03;;;9.90;99.90;;;;;;5076367;28;20189;-43
2023/12/26 05:12:12;;;;;;;2.03;0.50;;;9.80;99.90;;;;;;5075710;28;20284;-42
2023/12/26 05:14:38;;;;;;;1.13;0.67;;;9.80;99.90;;;;;;5075597;28;20183;-42
2023/12/26 05:17:07;;;;;;;2.70;1.00;;;9.90;99.90;;;;;;5075429;28;20179;-43
2023/12/26 05:23:02;;;;;;;5.43;0.70;;;9.80;99.90;;;;;;5075594;28;20267;-43
2023/12/26 05:25:28;;;;;;;4.83;0.77;;;9.80;99.90;;;;;;5075766;28;20180;-42
2023/12/26 05:27:55;;;;;;;1.07;0.57;;;9.90;99.90;;;;;;5057934;28;20167;-41
2023/12/26 05:30:20;;;;;;;2.73;0.70;;;9.90;99.90;;;;;;5075235;28;20213;-43
2023/12/26 05:32:49;;;;;;;4.07;0.90;;;9.90;99.90;;;;;;5057509;28;20721;-43
2023/12/26 05:35:18;;;;;;;3.30;1.33;;;9.90;99.90;;;;;;5075280;28;20179;-42
2023/12/26 05:37:45;;;;;;;3.07;0.50;;;9.90;99.90;;;;;;5075257;28;20185;-43
2023/12/26 05:40:19;;;;;;;1.20;0.53;;;9.90;99.90;;;;;;5075163;28;20725;-43
2023/12/26 05:43:28;;;;;;;1.60;0.63;;;9.80;99.90;;;;;;5076443;28;20186;-43
2023/12/26 05:46:03;;;;;;;2.47;0.70;;;9.80;99.90;;;;;;5080328;28;20206;-42
2023/12/26 05:48:31;;;;;;;3.57;0.90;;;9.80;99.90;;;;;;5063356;28;20565;-42
2023/12/26 05:50:57;;;;;;;0.83;0.50;;;9.80;99.90;;;;;;5080014;28;20238;-45
2023/12/26 05:53:24;;;;;;;3.70;1.00;;;9.80;99.90;;;;;;5080323;28;20172;-44
2023/12/26 05:55:52;;;;;;;1.70;0.63;;;9.80;99.90;;;;;;5080777;28;20250;-45
2023/12/26 05:58:18;;;;;;;2.30;1.10;;;9.80;99.90;;;;;;5074873;28;20312;-44
2023/12/26 06:00:49;;;;;;;2.33;0.70;;;9.80;99.90;;;;;;5074756;28;20285;-42
2023/12/26 06:03:15;;;;;;;5.53;1.00;;;9.80;99.90;;;;;;5075230;28;20639;-43
2023/12/26 06:05:41;;;;;;;3.23;0.67;;;9.80;99.90;;;;;;5074695;28;20263;-42
2023/12/26 06:08:07;;;;;;;8.23;1.17;;;9.80;99.90;;;;;;5074873;28;20228;-42
2023/12/26 06:10:33;;;;;;;4.63;0.90;;;9.80;99.90;;;;;;5074711;28;20284;-43
2023/12/26 06:13:02;;;;;;;1.93;0.90;;;9.80;99.90;;;;;;5074260;28;20194;-43
2023/12/26 06:15:28;;;;;;;2.90;0.80;;;9.80;99.90;;;;;;5056543;28;20209;-43
2023/12/26 06:17:59;;;;;;;2.13;0.90;;;9.80;99.90;;;;;;5056639;28;20258;-43
2023/12/26 06:20:27;;;;;;;5.03;0.80;;;9.80;99.90;;;;;;5074986;28;20648;-44
2023/12/26 06:22:53;;;;;;;2.73;1.00;;;9.80;99.90;;;;;;5074405;28;20536;-43
2023/12/26 06:25:19;;;;;;;2.73;0.80;;;9.70;99.90;;;;;;5056613;28;20178;-46
2023/12/26 06:27:48;;;;;;;7.70;1.17;;;9.70;99.90;;;;;;5074127;28;20176;-43
2023/12/26 06:30:14;;;;;;;4.77;0.87;;;9.80;99.90;;;;;;5074098;28;20202;-43
2023/12/26 06:32:40;;;;;;;2.47;0.80;;;9.70;99.90;;;;;;5073832;28;20219;-43
2023/12/26 06:35:09;;;;;;;2.33;0.90;;;9.70;99.90;;;;;;5074109;28;20186;-42
2023/12/26 06:37:36;;;;;;;3.13;0.70;;;9.70;99.90;;;;;;5056095;28;20207;-43
2023/12/26 06:40:02;;;;;;;2.27;0.90;;;9.70;99.90;;;;;;5056876;28;20211;-42
2023/12/26 06:42:27;;;;;;;1.13;0.63;;;9.70;99.90;;;;;;5084776;28;20246;-43
2023/12/26 06:44:56;;;;;;;1.10;0.80;;;9.70;99.90;;;;;;5084059;28;20198;-42
2023/12/26 06:47:22;;;;;;;4.77;0.90;;;9.80;99.90;;;;;;5084381;28;20183;-43
2023/12/26 06:49:53;;;;;;;4.20;1.33;;;9.70;99.90;;;;;;5076189;28;20255;-44
2023/12/26 06:52:31;;;;;;;2.33;0.90;;;9.80;99.90;;;;;;5040863;28;20349;-44
2023/12/26 06:54:58;;;;;;;3.13;0.97;;;9.70;99.90;;;;;;5074896;28;20268;-41
2023/12/26 07:00:57;;;;;;;4.27;1.20;;;9.70;99.90;;;;;;5074059;28;20218;-42
2023/12/26 07:03:23;;;;;;;4.23;1.30;;;9.70;99.90;;;;;;5074686;28;20220;-43
2023/12/26 07:05:49;;;;;;;2.67;1.10;;;9.70;99.90;;;;;;5055371;28;20197;-42
2023/12/26 07:08:24;;;;;;;7.67;1.70;;;9.80;99.90;;;;;;5073824;28;20179;-42
2023/12/26 07:10:54;;;;;;;4.10;1.70;;;9.80;99.90;;;;;;5073824;28;20214;-44
2023/12/26 07:13:21;;;;;;;4.20;1.20;;;9.80;99.90;;;;;;5055376;28;20218;-42
2023/12/26 07:15:47;;;;;;;3.23;1.30;;;9.80;99.90;;;;;;5056363;28;20585;-42
2023/12/26 07:18:13;;;;;;;2.83;1.07;;;9.80;99.90;;;;;;5074425;28;20175;-44
2023/12/26 07:20:39;;;;;;;3.37;1.53;;;9.80;99.90;;;;;;5073788;28;20199;-42
2023/12/26 07:23:07;;;;;;;4.60;1.70;;;9.80;99.90;;;;;;5056231;28;20179;-44
2023/12/26 07:25:32;;;;;;;5.27;1.50;;;9.80;99.90;;;;;;5073674;28;20172;-43
2023/12/26 07:28:01;;;;;;;6.20;1.30;;;9.80;99.90;;;;;;5073827;28;20635;-43
2023/12/26 07:33:51;;;;;;;6.87;1.27;;;9.80;99.90;;;;;;5073547;28;20214;-42
2023/12/26 07:36:26;;;;;;;6.03;1.87;;;9.80;99.90;;;;;;5062575;28;20249;-44
2023/12/26 07:38:53;;;;;;;3.43;1.13;;;9.90;99.90;;;;;;5073530;28;20226;-42
2023/12/26 07:41:20;;;;;;;4.63;1.23;;;9.80;99.90;;;;;;5055173;28;20293;-43
2023/12/26 07:43:47;;;;;;;4.53;1.47;;;9.80;99.90;;;;;;5073581;28;20192;-43
2023/12/26 07:46:13;;;;;;;2.43;1.20;;;9.80;99.90;;;;;;5072623;28;20203;-43
2023/12/26 07:48:51;;;;;;;4.83;2.17;;;9.80;99.90;;;;;;5073439;28;20197;-43
2023/12/26 07:51:17;;;;;;;4.83;1.57;;;9.80;99.90;;;;;;5058435;28;20622;-42
2023/12/26 07:53:42;;;;;;;2.83;1.40;;;9.80;99.90;;;;;;5077641;28;20207;-43
2023/12/26 07:56:08;;;;;;;5.50;1.43;;;9.80;99.90;;;;;;5077714;28;20580;-43
2023/12/26 07:58:35;;;;;;;9.17;1.60;;;9.80;99.90;;;;;;5077493;28;20177;-44
2023/12/26 08:01:04;;;;;;;2.73;0.83;;;9.80;99.90;;;;;;5059667;28;20207;-43
2023/12/26 08:03:29;;;;;;;5.47;1.43;;;9.70;99.90;;;;;;5077670;28;20183;-42
2023/12/26 08:06:00;;;;;;;4.07;1.63;;;9.80;99.90;;;;;;5059273;28;20270;-44
2023/12/26 08:08:30;;;;;;;2.43;1.20;;;9.80;99.90;;;;;;5059516;28;20243;-43
2023/12/26 08:10:56;;;;;;;4.87;1.30;;;9.80;99.90;;;;;;5077020;28;20215;-44
2023/12/26 08:13:22;;;;;;;5.50;1.43;;;9.80;99.90;;;;;;5077044;28;20627;-43
2023/12/26 08:16:16;;;;;;;4.90;1.60;;;9.80;99.90;;;;;;5059159;28;20211;-43
2023/12/26 08:18:42;;;;;;;4.50;1.33;;;9.80;99.90;;;;;;5059536;28;20542;-43
2023/12/26 08:21:26;;;;;;;5.10;1.67;;;9.80;99.90;;;;;;5059240;28;20233;-44
2023/12/26 08:23:57;;;;;;;5.53;1.40;;;9.80;99.90;;;;;;5076844;28;20186;-44
2023/12/26 08:26:30;;;;;;;3.47;1.40;;;9.80;99.90;;;;;;5077395;28;20508;-42
2023/12/26 08:28:59;;;;;;;5.10;1.63;;;9.80;99.90;;;;;;5076874;28;20245;-42
2023/12/26 08:31:25;;;;;;;4.40;1.50;;;9.80;99.90;;;;;;5077040;28;20210;-45
2023/12/26 08:33:51;;;;;;;10.83;2.07;;;9.80;99.90;;;;;;5077553;28;20563;-42
2023/12/26 08:36:16;;;;;;;2.40;1.10;;;9.80;99.90;;;;;;5077765;28;20178;-43
2023/12/26 08:38:48;;;;;;;6.40;1.70;;;9.80;99.90;;;;;;5077313;28;20185;-49
2023/12/26 08:41:14;;;;;;;9.40;1.27;;;9.80;99.90;;;;;;5076274;28;20230;-48
2023/12/26 08:43:43;;;;;;;6.80;1.23;;;9.80;99.90;;;;;;5058588;28;20183;-47
2023/12/26 08:46:09;;;;;;;8.20;1.90;;;9.80;99.90;;;;;;5076463;28;20179;-48
2023/12/26 08:48:38;;;;;;;3.33;1.63;;;9.80;99.90;;;;;;5058816;28;20194;-48
2023/12/26 08:51:10;;;;;;;9.37;1.93;;;9.80;99.90;;;;;;5076369;28;20626;-47
2023/12/26 08:53:37;;;;;;;5.83;1.70;;;9.80;99.90;;;;;;5076434;28;20171;-47
2023/12/26 08:56:05;;;;;;;7.57;1.80;;;9.80;99.90;;;;;;5058550;28;20581;-47
2023/12/26 08:58:35;;;;;;;4.53;1.83;;;9.80;99.90;;;;;;5058854;28;20180;-46
2023/12/26 09:01:02;;;;;;;3.73;1.43;;;9.80;99.90;;;;;;5076257;28;20605;-47
2023/12/26 09:03:28;;;;;;;8.77;1.80;;;9.80;99.90;;;;;;5075184;28;20191;-47
2023/12/26 09:05:55;;;;;;;3.13;1.87;;;9.80;99.90;;;;;;5076175;28;20209;-47
2023/12/26 09:08:20;;;;;;;11.57;2.57;;;9.80;99.90;;;;;;5076157;28;20195;-48
2023/12/26 09:10:47;;;;;;;9.33;1.70;;;9.80;99.90;;;;;;5075797;28;20599;-47
2023/12/26 09:13:15;;;;;;;4.63;1.50;;;9.90;99.90;;;;;;5057976;28;20674;-47
2023/12/26 09:15:41;;;;;;;4.13;1.43;;;9.80;99.90;;;;;;5076003;28;20190;-47
2023/12/26 09:18:07;;;;;;;6.80;2.00;;;9.80;99.90;;;;;;5057929;28;20659;-47
2023/12/26 09:20:37;;;;;;;7.30;2.13;;;9.90;99.90;;;;;;5058119;28;20203;-47
2023/12/26 09:23:03;;;;;;;5.43;1.37;;;9.90;99.90;;;;;;5058090;28;20172;-47
2023/12/26 09:25:29;;;;;;;4.57;1.87;;;9.90;99.90;;;;;;5057793;28;20548;-46
2023/12/26 09:27:55;;;;;;;12.27;2.17;;;9.90;99.90;;;;;;5075435;28;20542;-47
2023/12/26 09:30:21;;;;;;;7.70;2.27;;;10.00;99.90;;;;;;5074955;28;20218;-47
2023/12/26 09:32:50;;;;;;;7.73;1.03;;;10.00;99.90;;;;;;5057607;28;20211;-46
2023/12/26 09:38:42;;;;;;;8.50;1.47;;;10.10;99.90;;;;;;5075344;28;20165;-46
2023/12/26 09:41:20;;;;;;;3.93;1.33;;;10.10;99.90;;;;;;5075835;28;20234;-47
2023/12/26 09:43:48;;;;;;;6.77;2.13;;;10.10;99.90;;;;;;5075592;28;20221;-48
2023/12/26 09:46:14;;;;;;;6.87;1.50;;;10.10;99.90;;;;;;5073918;28;20184;-48
2023/12/26 09:48:40;;;;;;;6.83;1.37;;;10.10;99.90;;;;;;5057577;28;20183;-47
2023/12/26 09:51:14;;;;;;;10.03;1.60;;;10.10;99.90;;;;;;5074860;28;20208;-47
2023/12/26 09:53:46;;;;;;;5.23;0.93;;;10.10;99.90;;;;;;5075279;28;20181;-48
2023/12/26 09:56:12;;;;;;;4.73;1.37;;;10.10;99.90;;;;;;5075212;28;20188;-47
2023/12/26 09:58:44;;;;;;;13.57;1.67;;;10.10;99.90;;;;;;5075012;28;20231;-47
2023/12/26 10:01:16;;;;;;;6.57;1.60;;;10.20;99.90;;;;;;5075212;28;20558;-46
2023/12/26 10:03:45;;;;;;;6.83;1.17;;;10.20;99.90;;;;;;5075102;28;20189;-47
2023/12/26 10:06:18;;;;;;;6.57;1.60;;;10.20;99.90;;;;;;5074566;28;20182;-47
2023/12/26 10:08:44;;;;;;;7.93;1.73;;;10.40;99.90;;;;;;5075022;28;20214;-47
2023/12/26 10:11:15;;;;;;;6.97;1.63;;;10.40;99.90;;;;;;5074884;28;20691;-46
2023/12/26 10:13:51;;;;;;;4.63;1.40;;;10.50;99.90;;;;;;5073867;28;20182;-47
2023/12/26 10:19:40;;;;;;;5.97;1.00;;;10.70;99.90;;;;;;5033045;28;20270;-46
2023/12/26 10:22:05;;;;;;;3.70;0.90;;;10.70;99.90;;;;;;5032571;28;20632;-47
2023/12/26 10:24:32;;;;;;;5.60;1.30;;;10.70;99.90;;;;;;5032743;28;20235;-47
2023/12/26 10:26:59;;;;;;;7.33;1.47;;;10.70;99.90;;;;;;5032951;28;20177;-49
2023/12/26 10:29:24;;;;;;;6.10;1.60;;;10.70;99.90;;;;;;5051240;28;20218;-47
2023/12/26 10:31:59;;;;;;;5.87;1.30;;;10.80;99.90;;;;;;5076331;28;20203;-46
2023/12/26 10:34:29;;;;;;;4.80;1.37;;;10.90;99.90;;;;;;5073702;28;20202;-47
2023/12/26 10:36:55;;;;;;;8.27;1.67;;;10.90;99.90;;;;;;5056924;28;20558;-47
2023/12/26 10:39:21;;;;;;;9.23;1.37;;;10.90;99.90;;;;;;5056378;28;20192;-49
2023/12/26 10:41:51;;;;;;;8.00;1.40;;;10.90;99.90;;;;;;5074218;28;20168;-47
2023/12/26 10:44:18;;;;;;;9.73;1.67;;;10.90;99.90;;;;;;5079182;28;20171;-48
2023/12/26 10:46:49;;;;;;;7.27;1.57;;;10.80;99.90;;;;;;5063559;28;20540;-47
2023/12/26 10:49:24;;;;;;;7.53;1.43;;;10.70;99.90;;;;;;5080844;28;20211;-47
2023/12/26 10:51:56;;;;;;;8.00;1.30;;;10.70;99.90;;;;;;5077543;28;20210;-48
2023/12/26 10:54:33;;;;;;;5.70;1.50;;;10.50;99.90;;;;;;5074776;28;20211;-46
2023/12/26 10:57:00;;;;;;;9.30;1.60;;;10.40;99.90;;;;;;5074750;28;20543;-47
2023/12/26 10:59:27;;;;;;;7.77;1.10;;;10.40;99.90;;;;;;5074096;28;20288;-47
2023/12/26 11:01:53;;;;;;;4.93;1.37;;;10.40;99.90;;;;;;5056705;28;20184;-48
2023/12/26 11:04:19;;;;;;;9.63;1.43;;;10.30;99.90;;;;;;5056185;28;20286;-48
2023/12/26 11:06:48;;;;;;;9.73;1.60;;;10.20;99.90;;;;;;5074047;28;20176;-48
2023/12/26 11:09:15;;;;;;;5.73;1.20;;;10.10;99.90;;;;;;5074406;28;20179;-48
2023/12/26 11:11:42;;;;;;;9.93;2.17;;;10.00;99.90;;;;;;5071744;28;20619;-47
2023/12/26 11:17:33;;;;;;;8.80;1.40;;;9.90;99.90;;;;;;5073991;28;20162;-48
2023/12/26 11:19:59;;;;;;;7.27;1.40;;;9.90;99.90;;;;;;5073971;28;20206;-48
2023/12/26 11:22:24;;;;;;;7.83;1.40;;;9.90;99.90;;;;;;5074139;28;20179;-48
2023/12/26 11:24:53;;;;;;;10.20;1.30;;;9.90;99.90;;;;;;5073239;28;20180;-47
2023/12/26 11:27:25;;;;;;;7.63;1.57;;;9.90;99.90;;;;;;5073885;28;20257;-47
2023/12/26 11:29:54;;;;;;;8.87;1.23;;;9.90;99.90;;;;;;5073460;28;20199;-47
2023/12/26 11:32:20;;;;;;;7.97;1.60;;;10.00;99.90;;;;;;5073638;28;20540;-48
2023/12/26 11:34:46;;;;;;;7.77;1.53;;;10.00;99.90;;;;;;5056209;28;20596;-47
2023/12/26 11:37:12;;;;;;;4.90;1.00;;;10.00;99.90;;;;;;5055390;28;20195;-47
2023/12/26 11:39:41;;;;;;;7.23;1.83;;;10.00;99.90;;;;;;5073547;28;20244;-47
2023/12/26 11:42:07;;;;;;;8.60;1.47;;;10.10;99.90;;;;;;5073622;28;20175;-46
2023/12/26 11:44:33;;;;;;;10.53;1.97;;;10.10;99.90;;;;;;5073468;28;20189;-47
2023/12/26 11:50:22;;;;;;;9.50;1.97;;;10.20;99.90;;;;;;5073438;28;20706;-48
2023/12/26 11:52:54;;;;;;;6.63;1.33;;;10.20;99.90;;;;;;5073260;28;20269;-47
2023/12/26 11:55:20;;;;;;;7.87;1.57;;;10.30;99.90;;;;;;5073204;28;20185;-47
2023/12/26 11:57:45;;;;;;;7.40;1.70;;;10.40;99.90;;;;;;5073411;28;20537;-49
2023/12/26 12:00:11;;;;;;;10.07;1.83;;;10.40;99.90;;;;;;5073277;28;20207;-48
2023/12/26 12:02:41;;;;;;;8.30;1.80;;;10.40;99.90;;;;;;5073374;28;20175;-47
2023/12/26 12:05:07;;;;;;;9.03;1.87;;;10.40;99.90;;;;;;5038245;28;20192;-49
2023/12/26 12:08:05;;;;;;;5.97;1.17;;;10.40;99.90;;;;;;5073077;28;20175;-47
2023/12/26 12:10:30;;;;;;;11.07;1.93;;;10.40;99.90;;;;;;5072851;28;20607;-49
2023/12/26 12:12:56;;;;;;;10.77;2.80;;;10.40;99.90;;;;;;5055033;28;20211;-47
2023/12/26 12:15:26;;;;;;;6.73;2.03;;;10.40;99.90;;;;;;5073083;28;20215;-47
2023/12/26 12:17:55;;;;;;;12.37;2.00;;;10.50;99.90;;;;;;5073051;28;20217;-47
2023/12/26 12:20:55;;;;;;;3.80;1.40;;;10.40;99.90;;;;;;5073093;28;20202;-50
2023/12/26 12:23:25;;;;;;;8.10;2.03;;;10.50;99.90;;;;;;5072793;28;20574;-48
2023/12/26 12:26:06;;;;;;;9.17;1.97;;;10.50;99.90;;;;;;5072867;28;20180;-47
2023/12/26 12:28:31;;;;;;;6.37;2.00;;;10.50;99.90;;;;;;5055834;28;20160;-47
2023/12/26 12:31:13;;;;;;;3.37;0.97;;;10.40;99.90;;;;;;5072758;28;20212;-47
2023/12/26 12:33:39;;;;;;;8.53;2.13;;;10.40;99.90;;;;;;5073431;28;20173;-47
2023/12/26 12:36:11;;;;;;;8.63;1.83;;;10.40;99.90;;;;;;5073133;28;20614;-48
2023/12/26 12:41:59;;;;;;;9.63;1.73;;;10.30;99.90;;;;;;5076419;28;20182;-49
2023/12/26 12:44:31;;;;;;;10.77;2.37;;;10.30;99.90;;;;;;5076321;28;20172;-47
2023/12/26 12:47:05;;;;;;;12.33;1.90;;;10.30;99.90;;;;;;5076603;28;20168;-47
2023/12/26 12:49:31;;;;;;;8.67;2.03;;;10.40;99.90;;;;;;5076676;28;20203;-48
2023/12/26 12:52:00;;;;;;;8.93;2.13;;;10.40;99.90;;;;;;5058466;28;20207;-46
2023/12/26 12:54:26;;;;;;;9.70;1.90;;;10.40;99.90;;;;;;5076109;28;20678;-47
2023/12/26 12:56:55;;;;;;;13.17;1.77;;;10.50;99.90;;;;;;5058304;28;20179;-48
2023/12/26 12:59:21;;;;;;;7.90;1.70;;;10.60;99.90;;;;;;5058451;28;20547;-47
2023/12/26 13:01:48;;;;;;;6.60;1.90;;;10.60;99.90;;;;;;5058562;28;20179;-48
2023/12/26 13:04:13;;;;;;;9.93;1.97;;;10.70;99.90;;;;;;5075794;28;20585;-48
2023/12/26 13:06:59;;;;;;;8.13;2.10;;;10.80;99.90;;;;;;5076407;28;20218;-48
2023/12/26 13:09:26;;;;;;;8.10;1.90;;;10.80;99.90;;;;;;5076131;28;20650;-47
2023/12/26 13:11:52;;;;;;;6.67;1.30;;;10.70;99.90;;;;;;5075896;28;20564;-48
2023/12/26 13:14:21;;;;;;;8.30;2.07;;;10.60;99.90;;;;;;5075739;28;20180;-47
2023/12/26 13:16:47;;;;;;;7.90;1.80;;;10.50;99.90;;;;;;5075656;28;20176;-47
2023/12/26 13:19:12;;;;;;;8.83;2.83;;;10.40;99.90;;;;;;5075929;28;20182;-47
2023/12/26 13:21:48;;;;;;;13.03;3.53;;;10.40;99.90;;;;;;5075590;28;20179;-46
2023/12/26 13:24:21;;;;;;;12.47;1.90;;;10.30;99.90;;;;;;5075668;28;20163;-47
2023/12/26 13:26:51;;;;;;;8.00;2.07;;;10.20;99.90;;;;;;5057993;28;20188;-48
2023/12/26 13:29:24;;;;;;;8.40;1.80;;;10.10;99.90;;;;;;5075768;28;20167;-48
2023/12/26 13:31:52;;;;;;;11.93;2.47;;;10.10;99.90;;;;;;5075126;28;20294;-43
2023/12/26 13:34:19;;;;;;;8.90;1.70;;;10.00;99.90;;;;;;5057676;28;20212;-44
2023/12/26 13:40:09;;;;;;;8.97;1.83;;;9.90;99.90;;;;;;5075461;28;20276;-46
2023/12/26 13:42:37;;;;;;;6.70;1.43;;;9.90;99.90;;;;;;5075857;28;20214;-47
2023/12/26 13:45:13;;;;;;;11.20;2.27;;;9.90;99.90;;;;;;5057187;28;20271;-47